Time;durP1;ratioP1;P1;durP2;ratioP2;P2;SDS_P1;SDS_P2;PMS_P1;PMS_P2;Temp;Humidity;BMP_temperature;BMP_pressure;BME280_temperature;BME280_humidity;BME280_pressure;Samples;Min_cycle;Max_cycle;Signal;HPM_P1;HPM_P2
2022/11/30 00:01:13;;;;;;;62.72;34.53;;;;;;;8.79;86.29;102002.53;3617490;39;20159;-63
2022/11/30 00:03:39;;;;;;;63.97;35.13;;;;;;;8.79;85.57;102006.09;3616448;39;20062;-63
2022/11/30 00:06:09;;;;;;;64.25;34.20;;;;;;;8.79;86.51;102005.22;3615087;39;20081;-63
2022/11/30 00:08:36;;;;;;;64.43;35.15;;;;;;;8.77;85.98;102005.25;3619403;39;20046;-63
2022/11/30 00:11:15;;;;;;;69.28;37.50;;;;;;;8.78;86.35;102008.81;3616074;39;20108;-64
2022/11/30 00:13:40;;;;;;;67.85;35.90;;;;;;;8.78;86.46;102007.00;3618364;39;20317;-63
2022/11/30 00:16:07;;;;;;;68.22;35.03;;;;;;;8.80;86.41;102012.31;3616283;39;20120;-65
2022/11/30 00:18:33;;;;;;;75.35;37.53;;;;;;;8.78;85.71;102004.31;3615449;39;20442;-64
2022/11/30 00:21:01;;;;;;;68.80;36.35;;;;;;;8.80;85.86;102002.47;3615593;39;20054;-64
2022/11/30 00:23:32;;;;;;;66.88;35.50;;;;;;;8.81;85.91;102001.53;3617690;39;20101;-64
2022/11/30 00:26:09;;;;;;;67.95;36.13;;;;;;;8.84;86.49;102013.94;3614607;39;20050;-63
2022/11/30 00:28:36;;;;;;;73.70;36.55;;;;;;;8.83;85.79;102010.41;3615039;39;20054;-64
2022/11/30 00:31:09;;;;;;;72.78;38.15;;;;;;;8.84;86.53;102012.13;3615045;39;20270;-64
2022/11/30 00:33:38;;;;;;;67.85;37.00;;;;;;;8.84;85.97;102008.59;3614137;39;20102;-64
2022/11/30 00:36:12;;;;;;;70.57;36.00;;;;;;;8.84;85.68;102005.91;3617590;39;20413;-64
2022/11/30 00:38:38;;;;;;;69.78;36.95;;;;;;;8.86;86.33;102011.22;3616021;39;20059;-63
2022/11/30 00:41:04;;;;;;;64.32;36.28;;;;;;;8.84;86.14;102008.59;3612956;39;20050;-64
2022/11/30 00:43:31;;;;;;;70.38;38.13;;;;;;;8.84;86.26;102011.25;3614663;39;20053;-64
2022/11/30 00:45:57;;;;;;;64.70;36.97;;;;;;;8.72;86.16;102000.97;3615850;39;20695;-64
2022/11/30 00:48:23;;;;;;;61.70;35.53;;;;;;;8.72;86.05;102004.56;3615565;39;20050;-63
2022/11/30 00:50:49;;;;;;;64.47;35.72;;;;;;;8.81;86.43;102016.72;3616894;39;20073;-64
2022/11/30 00:53:16;;;;;;;63.70;36.53;;;;;;;8.83;86.60;102023.81;3616646;39;20058;-64
2022/11/30 00:55:43;;;;;;;67.00;35.15;;;;;;;8.82;85.89;102018.50;3614250;39;20054;-64
2022/11/30 00:58:09;;;;;;;66.32;35.78;;;;;;;8.82;86.36;102018.50;3613867;39;20101;-64
2022/11/30 01:00:35;;;;;;;66.38;36.72;;;;;;;8.83;86.27;102017.56;3614902;39;20078;-64
2022/11/30 01:03:01;;;;;;;64.38;37.83;;;;;;;8.79;85.56;102019.50;3615505;39;20069;-63
2022/11/30 01:05:28;;;;;;;64.07;35.83;;;;;;;8.79;85.71;102022.16;3612962;39;20087;-63
2022/11/30 01:07:54;;;;;;;63.78;35.33;;;;;;;8.78;85.50;102025.75;3613506;39;20278;-63
2022/11/30 01:10:21;;;;;;;67.13;35.55;;;;;;;8.77;86.84;102023.16;3616012;39;20053;-64
2022/11/30 01:12:48;;;;;;;66.47;35.97;;;;;;;8.78;86.08;102027.56;3611519;39;20046;-64
2022/11/30 01:15:14;;;;;;;65.03;35.85;;;;;;;8.78;86.40;102027.56;3616063;39;20054;-64
2022/11/30 01:17:39;;;;;;;64.78;35.47;;;;;;;8.78;86.08;102025.75;3614267;39;20061;-63
2022/11/30 01:20:07;;;;;;;68.40;35.92;;;;;;;8.71;86.11;102012.63;3612829;39;20059;-64
2022/11/30 01:22:34;;;;;;;63.53;35.40;;;;;;;8.67;86.42;102002.97;3613125;39;20047;-64
2022/11/30 01:25:00;;;;;;;59.63;33.47;;;;;;;8.80;87.00;102023.03;3613122;39;20123;-64
2022/11/30 01:27:25;;;;;;;60.95;33.17;;;;;;;8.82;86.42;102023.88;3615663;39;20062;-64
2022/11/30 01:29:51;;;;;;;61.90;31.58;;;;;;;8.84;86.67;102024.66;3612884;39;20061;-64
2022/11/30 01:32:16;;;;;;;60.95;32.90;;;;;;;8.79;86.34;102021.31;3614634;39;20401;-64
2022/11/30 01:34:42;;;;;;;57.13;32.85;;;;;;;8.88;86.11;102028.13;3614909;39;20077;-64
2022/11/30 01:37:07;;;;;;;56.78;31.55;;;;;;;8.89;86.34;102027.22;3613454;39;20066;-64
2022/11/30 01:39:33;;;;;;;57.60;31.60;;;;;;;8.86;85.85;102025.50;3616305;39;20050;-64
2022/11/30 01:41:59;;;;;;;55.13;31.10;;;;;;;8.89;86.23;102024.53;3616156;39;20055;-64
2022/11/30 01:44:27;;;;;;;56.22;30.00;;;;;;;8.87;85.70;102023.69;3606125;39;20057;-64
2022/11/30 01:47:12;;;;;;;52.17;30.60;;;;;;;8.87;86.40;102023.69;3613683;39;20088;-64
2022/11/30 01:49:50;;;;;;;53.67;29.60;;;;;;;8.86;85.56;102025.50;3612204;39;20413;-64
2022/11/30 01:52:50;;;;;;;55.20;30.33;;;;;;;8.83;86.24;102022.94;3601783;39;20318;-64
2022/11/30 01:55:42;;;;;;;55.00;30.50;;;;;;;8.83;85.67;102036.34;3616640;39;20062;-64
2022/11/30 01:58:15;;;;;;;51.95;29.75;;;;;;;8.82;86.12;102034.59;3613274;39;20061;-64
2022/11/30 02:00:46;;;;;;;52.17;30.37;;;;;;;8.78;85.97;102035.59;3615908;39;20051;-63
2022/11/30 02:03:50;;;;;;;52.65;29.20;;;;;;;8.55;86.41;102005.13;3615748;39;20055;-63
2022/11/30 02:06:17;;;;;;;49.73;28.80;;;;;;;8.80;86.29;102044.50;3618600;39;20046;-64
2022/11/30 02:08:43;;;;;;;49.80;29.23;;;;;;;8.16;85.70;101928.78;3617401;39;20268;-64
2022/11/30 02:11:14;;;;;;;51.00;28.05;;;;;;;8.83;85.60;102049.75;3614962;39;20304;-64
2022/11/30 02:14:04;;;;;;;48.65;29.33;;;;;;;8.83;86.32;102045.25;3616543;39;20059;-64
2022/11/30 02:17:05;;;;;;;53.58;28.65;;;;;;;8.80;86.48;102039.13;3617041;39;20127;-64
2022/11/30 02:20:07;;;;;;;52.38;28.10;;;;;;;8.81;86.40;102051.59;3615979;39;20070;-64
2022/11/30 02:23:06;;;;;;;49.35;28.90;;;;;;;8.80;86.50;102041.81;3617083;39;20478;-64
2022/11/30 02:26:10;;;;;;;44.95;26.55;;;;;;;8.81;86.46;102041.72;3616490;39;20053;-64
2022/11/30 02:29:05;;;;;;;45.08;26.25;;;;;;;8.79;85.78;102040.06;3617822;39;20126;-64
2022/11/30 02:31:48;;;;;;;44.20;25.23;;;;;;;8.81;85.51;102051.59;3611896;39;20043;-64
2022/11/30 02:34:19;;;;;;;41.72;25.98;;;;;;;8.83;86.32;102049.75;3615699;39;20339;-64
2022/11/30 02:36:47;;;;;;;41.83;25.17;;;;;;;8.83;86.71;102047.06;3615346;39;20050;-63
2022/11/30 02:39:13;;;;;;;42.40;25.92;;;;;;;8.68;86.16;102012.75;3614847;39;20066;-64
2022/11/30 02:41:40;;;;;;;41.97;26.05;;;;;;;8.86;85.82;102048.75;3614932;39;20118;-64
2022/11/30 02:44:10;;;;;;;41.95;25.90;;;;;;;8.86;85.69;102049.63;3615410;39;20122;-64
2022/11/30 02:46:55;;;;;;;43.75;25.40;;;;;;;8.86;85.67;102055.00;3615025;39;20051;-64
2022/11/30 02:49:50;;;;;;;40.65;24.00;;;;;;;8.85;86.49;102053.25;3616788;39;20051;-64
2022/11/30 02:52:22;;;;;;;40.35;24.25;;;;;;;8.86;85.49;102051.44;3613942;39;20050;-64
2022/11/30 02:54:48;;;;;;;37.60;23.77;;;;;;;8.87;85.95;102062.09;3603386;39;20405;-63
2022/11/30 02:57:13;;;;;;;38.17;23.75;;;;;;;8.87;86.34;102054.06;3609924;39;20113;-64
2022/11/30 02:59:40;;;;;;;38.88;23.08;;;;;;;8.89;85.83;102060.25;3613547;39;20059;-64
2022/11/30 03:02:06;;;;;;;36.88;23.08;;;;;;;8.89;85.43;102052.22;3613557;39;20174;-64
2022/11/30 03:04:31;;;;;;;33.00;22.67;;;;;;;8.89;85.25;102060.25;3612253;39;20107;-64
2022/11/30 03:06:57;;;;;;;32.28;21.10;;;;;;;8.84;85.28;102051.47;3613904;39;20317;-64
2022/11/30 03:09:23;;;;;;;34.60;23.08;;;;;;;8.89;85.90;102052.22;3612042;39;20082;-64
2022/11/30 03:11:49;;;;;;;30.88;22.10;;;;;;;8.88;85.30;102057.59;3611859;39;20384;-64
2022/11/30 03:14:14;;;;;;;33.42;22.05;;;;;;;8.83;84.90;102055.97;3614535;39;20050;-64
2022/11/30 03:16:40;;;;;;;31.98;20.88;;;;;;;8.82;84.58;102045.31;3613193;39;20112;-64
2022/11/30 03:19:06;;;;;;;31.60;21.75;;;;;;;8.84;85.55;102056.84;3613886;39;20090;-64
2022/11/30 03:21:31;;;;;;;31.23;21.98;;;;;;;8.83;84.92;102055.97;3613523;39;20077;-64
2022/11/30 03:23:57;;;;;;;31.83;21.17;;;;;;;8.84;85.20;102059.53;3616641;39;20054;-64
2022/11/30 03:26:22;;;;;;;30.52;21.35;;;;;;;8.83;85.35;102053.28;3616284;39;20043;-63
2022/11/30 03:28:48;;;;;;;28.95;21.15;;;;;;;8.82;85.17;102054.25;3613766;39;20058;-63
2022/11/30 03:31:14;;;;;;;30.92;21.38;;;;;;;8.84;84.80;102057.72;3614844;39;20062;-64
2022/11/30 03:33:40;;;;;;;30.35;21.10;;;;;;;8.82;84.51;102061.41;3613998;39;20161;-64
2022/11/30 03:36:09;;;;;;;32.88;20.67;;;;;;;8.82;85.10;102056.03;3615955;39;20065;-64
2022/11/30 03:38:36;;;;;;;31.05;21.67;;;;;;;8.80;85.42;102057.91;3615706;39;20139;-64
2022/11/30 03:41:09;;;;;;;31.88;20.30;;;;;;;8.79;85.11;102059.69;3615863;39;20047;-65
2022/11/30 03:43:35;;;;;;;29.75;20.45;;;;;;;8.74;85.21;102050.06;3613445;39;20063;-64
2022/11/30 03:46:02;;;;;;;30.27;20.63;;;;;;;8.60;84.96;102027.28;3616164;39;20373;-64
2022/11/30 03:48:28;;;;;;;27.27;20.13;;;;;;;8.70;84.95;102059.16;3612990;39;20047;-64
2022/11/30 03:50:53;;;;;;;32.38;20.27;;;;;;;8.68;84.46;102055.63;3614547;39;20066;-64
2022/11/30 03:53:21;;;;;;;28.75;20.42;;;;;;;8.66;84.74;102053.03;3615711;39;20062;-64
2022/11/30 03:56:01;;;;;;;28.17;19.77;;;;;;;8.59;84.45;102057.72;3616276;39;20051;-64
2022/11/30 03:58:27;;;;;;;30.58;20.25;;;;;;;8.58;84.87;102061.31;3612584;39;20062;-64
2022/11/30 04:01:13;;;;;;;30.70;21.25;;;;;;;8.54;84.92;102064.16;3616247;39;20042;-64
2022/11/30 04:03:40;;;;;;;32.72;20.90;;;;;;;8.48;85.69;102053.63;3616421;39;20075;-63
2022/11/30 04:06:09;;;;;;;31.73;20.85;;;;;;;8.57;85.67;102061.38;3614633;39;20058;-64
2022/11/30 04:08:36;;;;;;;30.75;20.65;;;;;;;8.54;85.55;102054.31;3612706;39;20120;-63
2022/11/30 04:11:03;;;;;;;30.95;20.83;;;;;;;8.60;86.14;102062.13;3613536;39;20468;-64
2022/11/30 04:13:31;;;;;;;30.48;20.75;;;;;;;8.62;85.88;102059.38;3613666;39;20046;-64
2022/11/30 04:15:57;;;;;;;34.60;21.08;;;;;;;8.50;85.60;102036.59;3612471;39;20063;-64
2022/11/30 04:18:27;;;;;;;31.65;20.73;;;;;;;8.62;86.03;102055.84;3615843;39;20738;-64
2022/11/30 04:20:55;;;;;;;31.25;20.48;;;;;;;8.62;85.25;102056.72;3614544;39;20069;-64
2022/11/30 04:23:24;;;;;;;30.10;20.30;;;;;;;8.59;84.75;102063.06;3613335;39;20046;-64
2022/11/30 04:25:50;;;;;;;30.85;20.52;;;;;;;8.60;85.68;102059.47;3614051;39;20062;-64
2022/11/30 04:28:17;;;;;;;31.05;20.00;;;;;;;8.59;85.06;102065.75;3615344;39;20067;-64
2022/11/30 04:30:45;;;;;;;31.63;21.30;;;;;;;8.58;85.58;102072.03;3614488;39;20054;-64
2022/11/30 04:33:13;;;;;;;31.20;20.85;;;;;;;8.58;85.36;102066.66;3615824;39;20046;-64
2022/11/30 04:35:45;;;;;;;31.73;20.95;;;;;;;8.60;85.34;102070.19;3613916;39;20054;-63
2022/11/30 04:38:11;;;;;;;29.77;20.45;;;;;;;8.60;85.53;102070.19;3615209;39;20062;-64
2022/11/30 04:40:41;;;;;;;32.08;20.92;;;;;;;8.60;85.57;102063.94;3612735;39;20072;-64
2022/11/30 04:43:09;;;;;;;30.77;20.67;;;;;;;8.62;85.39;102062.06;3613149;39;20057;-63
2022/11/30 04:45:35;;;;;;;32.63;20.88;;;;;;;8.62;85.71;102066.56;3613055;39;20063;-64
2022/11/30 04:48:02;;;;;;;32.28;21.67;;;;;;;8.59;85.78;102068.44;3614925;39;20050;-63
2022/11/30 04:50:27;;;;;;;34.42;21.92;;;;;;;8.59;85.80;102072.88;3617552;39;20057;-64
2022/11/30 04:52:53;;;;;;;31.40;20.15;;;;;;;8.38;85.80;102034.31;3613670;39;20297;-64
2022/11/30 04:55:18;;;;;;;30.67;20.80;;;;;;;8.53;85.73;102065.97;3614996;39;20092;-63
2022/11/30 04:57:46;;;;;;;34.10;21.38;;;;;;;8.58;85.99;102073.81;3616462;39;20066;-64
2022/11/30 05:00:14;;;;;;;30.65;20.90;;;;;;;8.55;85.03;102080.16;3616519;39;20380;-64
2022/11/30 05:02:40;;;;;;;31.85;21.45;;;;;;;8.54;85.93;102081.09;3614473;39;20051;-64
2022/11/30 05:05:06;;;;;;;28.88;20.23;;;;;;;8.50;85.38;102068.75;3611514;39;20115;-62
2022/11/30 05:07:32;;;;;;;31.98;21.33;;;;;;;8.48;85.53;102073.25;3603555;39;20654;-63
2022/11/30 05:09:58;;;;;;;29.83;20.50;;;;;;;8.47;85.83;102073.28;3615220;39;20079;-63
2022/11/30 05:12:23;;;;;;;32.78;21.45;;;;;;;8.46;85.79;102071.56;3613860;39;20321;-63
2022/11/30 05:14:49;;;;;;;31.13;21.58;;;;;;;8.44;85.10;102073.44;3615624;39;20058;-63
2022/11/30 05:17:15;;;;;;;30.67;21.50;;;;;;;8.40;85.65;102067.25;3613467;39;20054;-63
2022/11/30 05:19:40;;;;;;;31.83;20.80;;;;;;;8.36;85.24;102071.81;3611743;39;20058;-63
2022/11/30 05:22:06;;;;;;;31.88;21.27;;;;;;;8.35;85.11;102078.13;3603478;39;20050;-63
2022/11/30 05:24:32;;;;;;;32.40;21.25;;;;;;;8.31;85.77;102068.44;3614046;39;20127;-62
2022/11/30 05:26:58;;;;;;;32.15;20.90;;;;;;;8.33;85.63;102073.72;3615228;39;20069;-63
2022/11/30 05:29:24;;;;;;;30.42;19.65;;;;;;;8.34;86.05;102080.81;3603603;39;20181;-63
2022/11/30 05:31:49;;;;;;;33.97;21.67;;;;;;;8.34;85.21;102080.81;3613304;39;20384;-63
2022/11/30 05:34:15;;;;;;;32.97;20.90;;;;;;;7.67;85.80;101969.63;3614767;39;20062;-62
2022/11/30 05:36:41;;;;;;;29.98;19.73;;;;;;;8.30;85.90;102079.19;3608632;39;20063;-63
2022/11/30 05:39:06;;;;;;;28.13;19.50;;;;;;;8.21;85.54;102077.66;3613473;39;20055;-63
2022/11/30 05:41:32;;;;;;;29.98;19.60;;;;;;;8.22;85.48;102083.94;3606356;39;20325;-63
2022/11/30 05:43:57;;;;;;;30.88;19.45;;;;;;;8.20;85.73;102085.75;3614755;39;20061;-63
2022/11/30 05:46:23;;;;;;;29.88;20.00;;;;;;;8.09;84.97;102073.59;3614225;39;20066;-63
2022/11/30 05:48:49;;;;;;;28.85;19.67;;;;;;;8.14;84.82;102087.69;3613372;39;20115;-62
2022/11/30 05:51:18;;;;;;;30.25;18.98;;;;;;;8.13;85.82;102085.09;3613605;39;20058;-63
2022/11/30 05:53:45;;;;;;;32.47;19.85;;;;;;;8.12;85.99;102092.25;3614569;39;20070;-63
2022/11/30 05:56:15;;;;;;;30.02;20.05;;;;;;;8.13;85.32;102107.38;3613858;39;20051;-63
2022/11/30 05:58:43;;;;;;;30.73;21.23;;;;;;;8.11;86.02;102103.88;3616490;39;20062;-63
2022/11/30 06:01:29;;;;;;;32.63;22.10;;;;;;;8.10;85.47;102104.81;3614045;39;20132;-63
2022/11/30 06:03:54;;;;;;;33.60;21.23;;;;;;;8.10;86.58;102101.25;3616560;39;20058;-63
2022/11/30 06:06:22;;;;;;;32.95;21.52;;;;;;;8.12;85.83;102102.09;3614960;39;20058;-63
2022/11/30 06:08:49;;;;;;;34.88;21.95;;;;;;;8.13;86.08;102111.88;3613969;39;20059;-63
2022/11/30 06:11:15;;;;;;;30.27;21.08;;;;;;;8.14;86.07;102110.94;3612315;39;20385;-63
2022/11/30 06:13:41;;;;;;;32.53;20.63;;;;;;;8.14;86.13;102114.47;3614761;39;20042;-64
2022/11/30 06:16:08;;;;;;;35.00;21.77;;;;;;;8.14;86.51;102111.81;3603665;39;20082;-62
2022/11/30 06:18:35;;;;;;;32.33;22.10;;;;;;;8.12;86.39;102108.31;3613947;39;20382;-63
2022/11/30 06:21:10;;;;;;;31.52;21.70;;;;;;;8.09;85.83;102105.72;3612042;39;20065;-62
2022/11/30 06:23:36;;;;;;;31.25;21.88;;;;;;;8.13;86.44;102106.50;3615071;39;20488;-63
2022/11/30 06:26:05;;;;;;;29.63;20.45;;;;;;;8.13;86.58;102110.06;3611968;39;20082;-63
2022/11/30 06:28:31;;;;;;;31.38;20.75;;;;;;;8.05;86.80;102096.00;3613895;39;20071;-63
2022/11/30 06:31:04;;;;;;;32.90;21.52;;;;;;;8.18;85.99;102114.38;3612820;39;20058;-62
2022/11/30 06:33:30;;;;;;;32.22;21.77;;;;;;;8.18;85.55;102114.38;3616668;39;20067;-63
2022/11/30 06:35:56;;;;;;;28.77;20.52;;;;;;;8.15;85.61;102115.38;3615279;39;20058;-64
2022/11/30 06:38:23;;;;;;;29.63;20.48;;;;;;;8.18;86.14;102119.75;3613831;39;20090;-65
2022/11/30 06:40:49;;;;;;;31.23;20.45;;;;;;;8.19;85.72;102113.50;3613685;39;20050;-64
2022/11/30 06:43:15;;;;;;;34.08;22.45;;;;;;;8.18;86.36;102109.03;3615123;39;20061;-62
2022/11/30 06:45:45;;;;;;;31.75;21.63;;;;;;;8.19;86.44;102114.34;3617171;39;20062;-63
2022/11/30 06:48:12;;;;;;;30.08;21.02;;;;;;;8.16;85.61;102111.78;3611927;39;20068;-62
2022/11/30 06:50:38;;;;;;;33.70;20.95;;;;;;;7.99;86.17;102085.53;3607082;39;20098;-63
2022/11/30 06:53:04;;;;;;;33.22;21.30;;;;;;;8.15;86.60;102118.06;3614368;39;20403;-64
2022/11/30 06:55:31;;;;;;;28.13;20.55;;;;;;;8.09;86.05;102111.09;3611766;39;20066;-63
2022/11/30 06:58:06;;;;;;;28.35;20.55;;;;;;;8.10;85.97;102118.19;3604413;39;20279;-63
2022/11/30 07:00:32;;;;;;;27.88;20.83;;;;;;;8.18;86.27;102128.66;3612229;39;20054;-62
2022/11/30 07:02:57;;;;;;;29.42;20.77;;;;;;;8.18;85.93;102130.47;3614108;39;20155;-63
2022/11/30 07:05:23;;;;;;;35.00;21.33;;;;;;;8.20;85.98;102136.66;3611751;39;20050;-63
2022/11/30 07:07:48;;;;;;;29.90;20.85;;;;;;;8.18;86.54;102131.34;3613947;39;20048;-63
2022/11/30 07:10:14;;;;;;;29.58;20.52;;;;;;;8.20;86.73;102133.97;3613752;39;20058;-63
2022/11/30 07:12:39;;;;;;;26.52;19.75;;;;;;;8.21;85.75;102133.91;3614640;39;20393;-63
2022/11/30 07:15:06;;;;;;;29.70;21.10;;;;;;;8.24;85.90;102135.63;3615535;39;20389;-63
2022/11/30 07:17:31;;;;;;;29.58;20.33;;;;;;;8.24;85.47;102135.63;3613974;39;20366;-63
2022/11/30 07:19:57;;;;;;;30.73;21.40;;;;;;;8.27;85.63;102140.88;3613956;39;20302;-63
2022/11/30 07:22:23;;;;;;;32.40;20.65;;;;;;;8.26;86.06;102136.47;3613506;39;20094;-63
2022/11/30 07:27:33;;;;;;;30.00;21.48;;;;;;;8.26;86.18;102155.22;3611427;39;20435;-63
2022/11/30 07:29:58;;;;;;;32.67;21.25;;;;;;;8.27;86.26;102162.31;3613357;39;20050;-64
2022/11/30 07:32:24;;;;;;;30.00;20.17;;;;;;;8.26;85.54;102156.09;3612768;39;20058;-63
2022/11/30 07:34:49;;;;;;;31.63;20.35;;;;;;;8.28;85.69;102158.75;3613851;39;20050;-63
2022/11/30 07:37:15;;;;;;;36.03;21.67;;;;;;;8.26;86.00;102155.22;3611072;39;20427;-63
2022/11/30 07:39:41;;;;;;;28.90;20.60;;;;;;;8.29;85.11;102161.34;3616106;39;20050;-63
2022/11/30 07:42:06;;;;;;;27.42;20.13;;;;;;;8.28;85.32;102162.28;3613188;39;20308;-64
2022/11/30 07:44:32;;;;;;;34.30;21.60;;;;;;;8.28;86.10;102169.47;3611895;39;20070;-64
2022/11/30 07:46:59;;;;;;;30.45;20.90;;;;;;;8.30;85.46;102172.94;3612984;39;20077;-64
2022/11/30 07:49:25;;;;;;;31.27;21.58;;;;;;;8.29;85.96;102171.19;3614062;39;20057;-64
2022/11/30 07:51:50;;;;;;;29.05;20.50;;;;;;;8.31;85.55;102182.75;3612615;39;20055;-65
2022/11/30 07:54:16;;;;;;;30.38;21.27;;;;;;;8.33;85.57;102172.84;3612899;39;20054;-65
2022/11/30 07:56:42;;;;;;;28.92;21.38;;;;;;;8.33;85.77;102180.88;3614607;39;20054;-64
2022/11/30 07:59:09;;;;;;;29.48;21.20;;;;;;;8.10;85.29;102139.63;3614000;39;20059;-64
2022/11/30 08:01:34;;;;;;;31.48;21.90;;;;;;;8.36;85.38;102172.75;3615911;39;20094;-64
2022/11/30 08:04:00;;;;;;;28.88;20.67;;;;;;;8.29;85.76;102156.00;3614100;39;20070;-64
2022/11/30 08:06:30;;;;;;;31.42;21.67;;;;;;;8.40;85.06;102177.13;3611691;39;20061;-64
2022/11/30 08:09:00;;;;;;;34.53;21.67;;;;;;;8.19;85.02;102142.94;3615509;39;20058;-64
2022/11/30 08:11:31;;;;;;;32.40;21.95;;;;;;;8.40;85.32;102174.44;3612311;39;20051;-64
2022/11/30 08:13:57;;;;;;;30.48;21.08;;;;;;;8.41;85.84;102181.56;3614187;39;20079;-64
2022/11/30 08:16:27;;;;;;;30.08;21.70;;;;;;;8.44;85.32;102183.28;3613817;39;20055;-64
2022/11/30 08:18:56;;;;;;;30.58;21.00;;;;;;;8.45;85.52;102187.72;3612899;39;20059;-64
2022/11/30 08:21:22;;;;;;;31.20;22.65;;;;;;;8.46;85.46;102189.47;3613879;39;20127;-64
2022/11/30 08:23:52;;;;;;;31.55;22.25;;;;;;;8.49;84.96;102194.72;3612565;39;20046;-64
2022/11/30 08:26:22;;;;;;;31.52;22.52;;;;;;;8.49;84.74;102195.59;3614887;39;20054;-64
2022/11/30 08:28:50;;;;;;;33.60;22.75;;;;;;;8.48;85.17;102199.22;3616457;39;20039;-64
2022/11/30 08:31:21;;;;;;;30.50;22.65;;;;;;;8.46;84.71;102194.81;3616545;39;20063;-64
2022/11/30 08:33:47;;;;;;;30.42;22.23;;;;;;;8.45;85.06;102198.44;3615301;39;20356;-64
2022/11/30 08:36:16;;;;;;;34.63;22.17;;;;;;;8.45;84.35;102207.34;3617265;39;20521;-64
2022/11/30 08:38:45;;;;;;;31.48;22.33;;;;;;;8.47;85.12;102202.81;3620529;39;20106;-64
2022/11/30 08:41:15;;;;;;;34.97;24.55;;;;;;;8.54;84.91;102207.06;3614996;39;20058;-64
2022/11/30 08:43:41;;;;;;;35.72;25.60;;;;;;;8.47;85.38;102191.19;3615721;39;20287;-64
2022/11/30 08:46:11;;;;;;;35.78;25.38;;;;;;;8.65;84.51;102213.88;3619974;39;20374;-65
2022/11/30 08:48:36;;;;;;;34.00;23.35;;;;;;;8.70;85.06;102212.81;3615678;39;20077;-64
2022/11/30 08:51:06;;;;;;;33.05;23.77;;;;;;;8.76;84.88;102222.47;3614539;39;20066;-64
2022/11/30 08:53:33;;;;;;;35.17;22.45;;;;;;;8.70;84.34;102209.25;3616706;39;20062;-64
2022/11/30 08:56:03;;;;;;;31.85;23.33;;;;;;;8.75;84.02;102218.03;3617794;39;20537;-64
2022/11/30 08:58:32;;;;;;;30.83;22.20;;;;;;;8.71;83.46;102211.88;3615585;39;20066;-64
2022/11/30 09:01:25;;;;;;;31.73;21.40;;;;;;;8.69;83.44;102211.06;3618686;39;20131;-64
2022/11/30 09:03:55;;;;;;;30.35;21.50;;;;;;;8.73;84.18;102222.56;3615482;39;20039;-64
2022/11/30 09:06:26;;;;;;;32.60;22.30;;;;;;;8.78;83.98;102225.97;3616729;39;20043;-64
2022/11/30 09:08:55;;;;;;;30.60;21.73;;;;;;;8.86;83.83;102217.69;3618661;39;21289;-64
2022/11/30 09:11:26;;;;;;;28.90;20.95;;;;;;;8.93;83.84;102224.59;3615913;39;20488;-64
2022/11/30 09:13:55;;;;;;;30.88;22.60;;;;;;;8.95;83.26;102220.94;3612589;39;20058;-65
2022/11/30 09:16:23;;;;;;;28.00;20.92;;;;;;;9.05;83.82;102226.88;3614039;39;20062;-65
2022/11/30 09:18:50;;;;;;;28.15;21.13;;;;;;;9.06;83.52;102224.13;3614118;39;20372;-65
2022/11/30 09:21:20;;;;;;;29.65;20.83;;;;;;;9.13;82.60;102230.19;3614346;39;20063;-65
2022/11/30 09:23:48;;;;;;;28.50;21.10;;;;;;;9.14;82.45;102231.09;3612897;39;20050;-63
2022/11/30 09:26:17;;;;;;;29.73;21.10;;;;;;;9.15;82.32;102224.78;3616470;39;20042;-64
2022/11/30 09:28:45;;;;;;;26.55;20.38;;;;;;;9.25;82.41;102228.91;3615021;39;20064;-64
2022/11/30 09:31:16;;;;;;;29.85;21.17;;;;;;;9.38;82.82;102240.09;3614156;39;20055;-64
2022/11/30 09:33:42;;;;;;;28.92;20.58;;;;;;;9.44;81.81;102243.44;3619318;39;20054;-63
2022/11/30 09:36:15;;;;;;;27.05;21.17;;;;;;;9.56;81.98;102238.59;3616939;39;20046;-64
2022/11/30 09:38:41;;;;;;;30.07;21.03;;;;;;;9.53;80.67;102228.84;3613671;39;20300;-64
2022/11/30 09:41:33;;;;;;;28.77;21.15;;;;;;;9.61;80.97;102244.66;3611317;39;20397;-63
2022/11/30 09:44:47;;;;;;;31.05;21.40;;;;;;;9.67;80.75;102253.41;3587874;39;20092;-63
2022/11/30 09:47:25;;;;;;;29.80;20.25;;;;;;;9.68;80.76;102243.53;3616656;39;20046;-64
2022/11/30 09:49:50;;;;;;;26.30;20.40;;;;;;;9.66;80.25;102240.88;3605368;39;20060;-64
2022/11/30 09:52:38;;;;;;;31.25;21.60;;;;;;;9.69;79.95;102239.91;3616029;39;20054;-63
2022/11/30 09:55:16;;;;;;;28.58;20.20;;;;;;;9.66;79.74;102234.66;3618860;39;20054;-63
2022/11/30 09:57:54;;;;;;;27.08;20.50;;;;;;;9.70;79.77;102247.03;3621375;39;20054;-63
2022/11/30 10:00:24;;;;;;;27.55;20.85;;;;;;;9.79;80.68;102246.69;3617127;39;20405;-63
2022/11/30 10:02:54;;;;;;;25.52;20.23;;;;;;;9.98;80.36;102247.78;3620607;39;20074;-64
2022/11/30 10:05:28;;;;;;;26.52;20.33;;;;;;;10.19;79.28;102245.25;3617942;39;20765;-63
2022/11/30 10:08:35;;;;;;;25.80;19.15;;;;;;;10.37;77.53;102249.97;3621835;39;20054;-63
2022/11/30 10:11:37;;;;;;;26.55;19.33;;;;;;;10.49;77.15;102231.59;3602203;39;20077;-63
2022/11/30 10:14:20;;;;;;;25.23;19.45;;;;;;;10.60;76.74;102235.63;3614996;39;20168;-63
2022/11/30 10:17:11;;;;;;;23.13;18.03;;;;;;;10.71;75.21;102229.81;3616822;39;20058;-62
2022/11/30 10:20:11;;;;;;;26.48;19.50;;;;;;;10.81;76.44;102239.25;3615148;39;20047;-63
2022/11/30 10:23:17;;;;;;;24.13;19.08;;;;;;;10.21;75.48;102127.81;3617138;39;20107;-63
2022/11/30 10:25:56;;;;;;;24.40;18.63;;;;;;;10.98;75.55;102226.97;3615488;39;20112;-63
2022/11/30 10:28:39;;;;;;;26.38;19.08;;;;;;;11.08;73.97;102231.03;3614245;39;20065;-63
2022/11/30 10:31:12;;;;;;;25.45;19.05;;;;;;;11.15;73.73;102221.75;3616068;39;20046;-63
2022/11/30 10:34:22;;;;;;;23.40;18.38;;;;;;;11.33;73.31;102222.78;3606664;39;20069;-63
2022/11/30 10:37:31;;;;;;;23.00;18.02;;;;;;;11.57;71.80;102226.22;3617219;39;20046;-63
2022/11/30 10:40:02;;;;;;;24.80;17.73;;;;;;;11.84;71.22;102233.13;3614722;39;20058;-63
2022/11/30 10:42:37;;;;;;;23.50;17.73;;;;;;;12.05;71.16;102220.53;3610890;39;20076;-63
2022/11/30 10:45:10;;;;;;;21.05;16.67;;;;;;;12.32;69.73;102221.06;3616845;39;20416;-64
2022/11/30 10:48:02;;;;;;;22.80;17.38;;;;;;;12.55;68.67;102214.56;3616643;39;20050;-63
2022/11/30 10:50:30;;;;;;;20.38;16.58;;;;;;;12.81;67.73;102222.34;3616286;39;20062;-63
2022/11/30 10:52:59;;;;;;;23.20;17.48;;;;;;;13.04;68.05;102219.41;3617980;39;20049;-63
2022/11/30 10:55:33;;;;;;;21.08;16.23;;;;;;;13.18;66.45;102213.28;3604312;39;20828;-63
2022/11/30 10:58:17;;;;;;;;;;;;;;;12.98;66.03;102217.00;3615701;39;20069;-64
2022/11/30 11:01:01;;;;;;;24.20;16.90;;;;;;;12.79;66.81;102208.94;3618217;39;19927;-64
2022/11/30 11:03:26;;;;;;;23.08;16.98;;;;;;;12.67;66.63;102215.81;3611857;39;20059;-64
2022/11/30 11:06:24;;;;;;;21.70;16.98;;;;;;;12.54;67.01;102206.56;3614982;39;20065;-64
2022/11/30 11:08:50;;;;;;;20.58;15.60;;;;;;;12.35;66.06;102205.69;3608612;39;20050;-65
2022/11/30 11:11:37;;;;;;;17.50;13.40;;;;;;;12.08;63.58;102214.09;3620474;39;20054;-65
2022/11/30 11:14:23;;;;;;;19.20;14.07;;;;;;;12.00;64.01;102209.06;3617613;39;20066;-64
2022/11/30 11:17:03;;;;;;;21.52;16.45;;;;;;;11.96;67.41;102206.59;3617394;39;20349;-64
2022/11/30 11:19:41;;;;;;;20.30;16.10;;;;;;;11.88;66.32;102214.13;3617523;39;20079;-65
2022/11/30 11:22:22;;;;;;;20.20;15.10;;;;;;;11.74;66.86;102207.53;3615716;39;20043;-64
2022/11/30 11:24:53;;;;;;;19.10;13.85;;;;;;;11.62;65.21;102208.06;3616486;39;20063;-64
2022/11/30 11:27:32;;;;;;;17.55;13.43;;;;;;;11.44;65.03;102211.56;3619614;39;20054;-65
2022/11/30 11:30:15;;;;;;;21.33;16.08;;;;;;;11.30;68.29;102198.69;3615136;39;20051;-64
2022/11/30 11:33:10;;;;;;;24.90;17.38;;;;;;;11.17;71.13;102200.16;3614257;39;20409;-64
2022/11/30 11:35:49;;;;;;;25.98;18.60;;;;;;;11.04;71.93;102197.13;3623417;39;20058;-64
2022/11/30 11:38:28;;;;;;;26.70;19.48;;;;;;;10.81;72.55;102166.63;3614414;39;20051;-64